Time;durP1;ratioP1;P1;durP2;ratioP2;P2;SDS_P1;SDS_P2;PMS_P1;PMS_P2;Temp;Humidity;BMP_temperature;BMP_pressure;BME280_temperature;BME280_humidity;BME280_pressure;Samples;Min_cycle;Max_cycle;Signal;HPM_P1;HPM_P2
2021/07/10 00:01:27;;;;;;;13.23;8.77;;;;;;;;;;5074587;28;20412;-67
2021/07/10 00:03:53;;;;;;;9.73;8.50;;;;;;;;;;5078960;28;20432;-68
2021/07/10 00:06:19;;;;;;;14.20;10.10;;;;;;;;;;5094418;28;20891;-67
2021/07/10 00:08:45;;;;;;;8.30;7.40;;;;;;;;;;5093360;28;20967;-68
2021/07/10 00:11:11;;;;;;;7.63;6.77;;;;;;;;;;5094396;28;20400;-68
2021/07/10 00:13:37;;;;;;;7.80;6.67;;;;;;;;;;5090572;28;20416;-68
2021/07/10 00:16:04;;;;;;;10.30;7.27;;;;;;;;;;5094369;28;20400;-67
2021/07/10 00:18:30;;;;;;;8.87;7.97;;;;;;;;;;5093128;28;20477;-68
2021/07/10 00:20:56;;;;;;;8.70;6.67;;;;;;;;;;5094246;28;20423;-67
2021/07/10 00:23:22;;;;;;;8.50;7.10;;;;;;;;;;5093506;28;20884;-68
2021/07/10 00:25:48;;;;;;;11.33;6.60;;;;;;;;;;5093803;28;20408;-67
2021/07/10 00:28:14;;;;;;;10.30;7.57;;;;;;;;;;5094290;28;20543;-68
2021/07/10 00:30:40;;;;;;;8.70;6.97;;;;;;;;;;5074821;28;20484;-68
2021/07/10 00:33:06;;;;;;;11.50;7.67;;;;;;;;;;5073333;28;20425;-68
2021/07/10 00:35:32;;;;;;;9.67;7.80;;;;;;;;;;5073385;28;20499;-67
2021/07/10 00:37:58;;;;;;;12.00;8.07;;;;;;;;;;5073811;28;20903;-67
2021/07/10 00:40:24;;;;;;;9.30;8.27;;;;;;;;;;5089217;28;20427;-67
2021/07/10 00:42:50;;;;;;;10.77;7.20;;;;;;;;;;5093859;28;20403;-68
2021/07/10 00:45:16;;;;;;;9.43;6.70;;;;;;;;;;5093189;28;20424;-67
2021/07/10 00:47:43;;;;;;;11.73;7.90;;;;;;;;;;5094897;28;20396;-68
2021/07/10 00:50:09;;;;;;;9.30;7.40;;;;;;;;;;5088822;28;20456;-68
2021/07/10 00:52:35;;;;;;;9.20;7.53;;;;;;;;;;5074019;28;20511;-68
2021/07/10 00:55:01;;;;;;;11.03;8.63;;;;;;;;;;5085333;28;20969;-68
2021/07/10 00:57:28;;;;;;;12.90;8.80;;;;;;;;;;5093765;28;20397;-67
2021/07/10 00:59:54;;;;;;;12.97;8.60;;;;;;;;;;5092599;28;20487;-67
2021/07/10 01:02:20;;;;;;;7.80;7.00;;;;;;;;;;5093554;28;20396;-67
2021/07/10 01:04:46;;;;;;;9.53;6.80;;;;;;;;;;5092541;28;20440;-67
2021/07/10 01:07:12;;;;;;;12.17;6.90;;;;;;;;;;5079409;28;20475;-68
2021/07/10 01:09:38;;;;;;;10.60;6.90;;;;;;;;;;5080960;28;20463;-68
2021/07/10 01:12:05;;;;;;;13.90;5.87;;;;;;;;;;5093664;28;20411;-67
2021/07/10 01:14:31;;;;;;;6.90;6.20;;;;;;;;;;5091886;28;20515;-67
2021/07/10 01:16:57;;;;;;;7.93;6.90;;;;;;;;;;5093386;28;20408;-67
2021/07/10 01:19:29;;;;;;;8.43;6.50;;;;;;;;;;5091751;28;20832;-67
2021/07/10 01:21:56;;;;;;;8.73;6.43;;;;;;;;;;5093283;28;20411;-68
2021/07/10 01:24:22;;;;;;;7.67;5.83;;;;;;;;;;5087392;28;20464;-67
2021/07/10 01:26:49;;;;;;;6.60;5.83;;;;;;;;;;5072557;28;20483;-69
2021/07/10 01:29:15;;;;;;;10.13;6.77;;;;;;;;;;5081679;28;20463;-68
2021/07/10 01:31:42;;;;;;;10.00;7.10;;;;;;;;;;5093103;28;20413;-68
2021/07/10 01:34:08;;;;;;;7.63;5.73;;;;;;;;;;5102004;28;20438;-67
2021/07/10 01:36:35;;;;;;;5.90;5.30;;;;;;;;;;5093203;28;20416;-67
2021/07/10 01:39:01;;;;;;;9.50;6.60;;;;;;;;;;5092932;28;20419;-67
2021/07/10 01:41:27;;;;;;;8.53;6.20;;;;;;;;;;5092003;28;20427;-68
2021/07/10 01:43:53;;;;;;;7.07;5.93;;;;;;;;;;5093091;28;20407;-67
2021/07/10 01:46:19;;;;;;;6.50;5.87;;;;;;;;;;5076152;28;20516;-67
2021/07/10 01:48:45;;;;;;;6.00;5.40;;;;;;;;;;5076736;28;20460;-67
2021/07/10 01:51:11;;;;;;;6.20;5.60;;;;;;;;;;5090961;28;20448;-68
2021/07/10 01:53:38;;;;;;;12.87;6.53;;;;;;;;;;5097154;28;20403;-68
2021/07/10 01:56:04;;;;;;;6.50;5.73;;;;;;;;;;5095012;28;20989;-68
2021/07/10 01:58:30;;;;;;;8.00;6.63;;;;;;;;;;5097046;28;20447;-67
2021/07/10 02:00:56;;;;;;;7.10;5.60;;;;;;;;;;5094542;28;20434;-67
2021/07/10 02:03:22;;;;;;;5.93;5.10;;;;;;;;;;5110848;28;20431;-67
2021/07/10 02:05:48;;;;;;;6.67;5.50;;;;;;;;;;5109271;28;20523;-68
2021/07/10 02:08:15;;;;;;;6.30;5.37;;;;;;;;;;5095387;28;20831;-67
2021/07/10 02:10:41;;;;;;;7.00;6.10;;;;;;;;;;5095808;28;20419;-68
2021/07/10 02:13:12;;;;;;;7.03;5.80;;;;;;;;;;5096837;28;20396;-67
2021/07/10 02:15:38;;;;;;;6.77;6.07;;;;;;;;;;5094053;28;20926;-68
2021/07/10 02:18:05;;;;;;;7.00;6.30;;;;;;;;;;5116857;28;20460;-68
2021/07/10 02:20:31;;;;;;;7.63;6.10;;;;;;;;;;5112123;28;20427;-68
2021/07/10 02:22:57;;;;;;;6.47;5.60;;;;;;;;;;5096568;28;20445;-67
2021/07/10 02:25:24;;;;;;;10.43;5.83;;;;;;;;;;5095454;28;20429;-67
2021/07/10 02:27:51;;;;;;;7.73;6.00;;;;;;;;;;5095143;28;20424;-67
2021/07/10 02:30:18;;;;;;;6.93;5.93;;;;;;;;;;5097841;28;20465;-68
2021/07/10 02:32:45;;;;;;;7.70;6.53;;;;;;;;;;5096449;28;20481;-67
2021/07/10 02:35:11;;;;;;;7.10;5.80;;;;;;;;;;5095475;28;20409;-68
2021/07/10 02:37:38;;;;;;;7.53;5.93;;;;;;;;;;5095478;28;20404;-68
2021/07/10 02:40:06;;;;;;;6.00;5.40;;;;;;;;;;5095880;28;20509;-68
2021/07/10 02:42:32;;;;;;;7.00;5.80;;;;;;;;;;5094943;28;20542;-67
2021/07/10 02:44:58;;;;;;;7.63;5.87;;;;;;;;;;5096439;28;20408;-67
2021/07/10 02:47:24;;;;;;;7.73;5.70;;;;;;;;;;5094962;28;20428;-67
2021/07/10 02:49:50;;;;;;;7.73;5.60;;;;;;;;;;5095838;28;20443;-68
2021/07/10 02:52:17;;;;;;;5.73;5.13;;;;;;;;;;5094921;28;21009;-67
2021/07/10 02:54:43;;;;;;;5.60;4.73;;;;;;;;;;5095947;28;20482;-67
2021/07/10 02:57:09;;;;;;;6.87;6.13;;;;;;;;;;5094649;28;20447;-67
2021/07/10 02:59:35;;;;;;;6.20;5.60;;;;;;;;;;5089720;28;20929;-68
2021/07/10 03:02:02;;;;;;;9.07;5.87;;;;;;;;;;5077558;28;20444;-67
2021/07/10 03:04:28;;;;;;;7.03;6.17;;;;;;;;;;5087296;28;20960;-68
2021/07/10 03:06:54;;;;;;;10.50;6.20;;;;;;;;;;5091995;28;20428;-67
2021/07/10 03:09:20;;;;;;;7.60;6.10;;;;;;;;;;5097776;28;20448;-67
2021/07/10 03:11:48;;;;;;;8.00;6.50;;;;;;;;;;5085844;28;20424;-68
2021/07/10 03:14:15;;;;;;;8.77;6.47;;;;;;;;;;5097526;28;20527;-67
2021/07/10 03:16:41;;;;;;;10.70;6.80;;;;;;;;;;5107871;28;20423;-67
2021/07/10 03:19:07;;;;;;;8.33;6.90;;;;;;;;;;5091855;28;20532;-67
2021/07/10 03:21:33;;;;;;;8.67;6.70;;;;;;;;;;5075235;28;20436;-67
2021/07/10 03:23:59;;;;;;;9.43;7.30;;;;;;;;;;5075169;28;20429;-67
2021/07/10 03:26:25;;;;;;;8.30;6.90;;;;;;;;;;5082946;28;20839;-68
2021/07/10 03:28:51;;;;;;;10.97;7.40;;;;;;;;;;5095143;28;20474;-67
2021/07/10 03:31:17;;;;;;;6.83;6.00;;;;;;;;;;5094328;28;20423;-67
2021/07/10 03:33:44;;;;;;;6.90;6.10;;;;;;;;;;5095213;28;20400;-67
2021/07/10 03:36:11;;;;;;;9.30;7.23;;;;;;;;;;5094059;28;20523;-68
2021/07/10 03:38:39;;;;;;;8.63;7.67;;;;;;;;;;5093919;28;20444;-67
2021/07/10 03:41:05;;;;;;;12.10;7.40;;;;;;;;;;5094249;28;20763;-68
2021/07/10 03:43:31;;;;;;;9.30;7.30;;;;;;;;;;5088999;28;20795;-68
2021/07/10 03:46:02;;;;;;;7.20;6.50;;;;;;;;;;5077271;28;20460;-68
2021/07/10 03:48:28;;;;;;;7.40;6.60;;;;;;;;;;5094360;28;20444;-68
2021/07/10 03:50:54;;;;;;;9.77;5.87;;;;;;;;;;5088675;28;20483;-67
2021/07/10 03:53:20;;;;;;;7.77;6.63;;;;;;;;;;5095062;28;20791;-67
2021/07/10 03:55:47;;;;;;;7.50;6.20;;;;;;;;;;5092956;28;20400;-68
2021/07/10 03:58:13;;;;;;;7.80;6.83;;;;;;;;;;5074312;28;20901;-67
2021/07/10 04:00:39;;;;;;;13.37;7.10;;;;;;;;;;5074287;28;20393;-68
2021/07/10 04:03:06;;;;;;;8.77;6.57;;;;;;;;;;5094426;28;20416;-67
2021/07/10 04:05:32;;;;;;;8.93;6.10;;;;;;;;;;5094473;28;20408;-68
2021/07/10 04:07:58;;;;;;;6.10;5.50;;;;;;;;;;5092106;28;20428;-67
2021/07/10 04:10:24;;;;;;;8.03;7.00;;;;;;;;;;5092715;28;20448;-67
2021/07/10 04:12:50;;;;;;;7.50;6.53;;;;;;;;;;5091982;28;20423;-68
2021/07/10 04:15:17;;;;;;;7.60;6.80;;;;;;;;;;5093894;28;20415;-67
2021/07/10 04:17:44;;;;;;;7.57;6.47;;;;;;;;;;5092932;28;20428;-67
2021/07/10 04:20:10;;;;;;;7.73;6.40;;;;;;;;;;5094090;28;20430;-67
2021/07/10 04:22:37;;;;;;;8.97;5.73;;;;;;;;;;5093399;28;20456;-67
2021/07/10 04:25:04;;;;;;;7.93;7.07;;;;;;;;;;5092444;28;20922;-68
2021/07/10 04:27:31;;;;;;;8.90;7.00;;;;;;;;;;5088904;28;20795;-68
2021/07/10 04:29:57;;;;;;;7.03;6.07;;;;;;;;;;5093771;28;20520;-67
2021/07/10 04:32:23;;;;;;;7.67;6.10;;;;;;;;;;5093145;28;20768;-67
2021/07/10 04:34:49;;;;;;;8.63;7.20;;;;;;;;;;5093803;28;20499;-68
2021/07/10 04:37:15;;;;;;;7.47;6.17;;;;;;;;;;5081736;28;20452;-67
2021/07/10 04:39:41;;;;;;;7.17;6.43;;;;;;;;;;5073718;28;20499;-67
2021/07/10 04:42:08;;;;;;;9.73;7.23;;;;;;;;;;5073650;28;20519;-67
2021/07/10 04:44:34;;;;;;;9.00;7.80;;;;;;;;;;5072983;28;20443;-69
2021/07/10 04:47:00;;;;;;;9.03;6.87;;;;;;;;;;5088536;28;20924;-67
2021/07/10 04:49:26;;;;;;;7.17;6.57;;;;;;;;;;5073221;28;20463;-67
2021/07/10 04:51:52;;;;;;;8.50;6.60;;;;;;;;;;5080156;28;20497;-67
2021/07/10 04:54:18;;;;;;;11.63;6.60;;;;;;;;;;5093879;28;20404;-67
2021/07/10 04:56:44;;;;;;;8.07;6.00;;;;;;;;;;5092714;28;20424;-67
2021/07/10 04:59:10;;;;;;;8.17;7.07;;;;;;;;;;5092178;28;20435;-67
2021/07/10 05:01:36;;;;;;;7.03;5.70;;;;;;;;;;5092354;28;20431;-67
2021/07/10 05:04:02;;;;;;;6.57;5.80;;;;;;;;;;5093339;28;20915;-67
2021/07/10 05:06:28;;;;;;;6.83;6.10;;;;;;;;;;5089104;28;20925;-68
2021/07/10 05:08:54;;;;;;;12.67;6.00;;;;;;;;;;5072912;28;20456;-68
2021/07/10 05:11:20;;;;;;;5.97;5.27;;;;;;;;;;5073086;28;20476;-68
2021/07/10 05:13:46;;;;;;;7.27;5.70;;;;;;;;;;5073303;28;20425;-67
2021/07/10 05:16:12;;;;;;;9.37;5.80;;;;;;;;;;5071810;28;20458;-68
2021/07/10 05:18:38;;;;;;;7.30;6.00;;;;;;;;;;5072926;28;20429;-68
2021/07/10 05:21:05;;;;;;;8.53;6.60;;;;;;;;;;5104556;28;20419;-68
2021/07/10 05:23:31;;;;;;;6.60;5.27;;;;;;;;;;5092706;28;20412;-68
2021/07/10 05:25:57;;;;;;;6.57;5.17;;;;;;;;;;5093180;28;20405;-67
2021/07/10 05:28:23;;;;;;;7.77;5.80;;;;;;;;;;5091881;28;20448;-68
2021/07/10 05:30:50;;;;;;;7.13;5.70;;;;;;;;;;5093083;28;20400;-67
2021/07/10 05:33:16;;;;;;;6.20;5.60;;;;;;;;;;5091993;28;20443;-67
2021/07/10 05:35:45;;;;;;;6.00;5.10;;;;;;;;;;5093039;28;20451;-68
2021/07/10 05:38:11;;;;;;;5.10;4.57;;;;;;;;;;5075720;28;20424;-68
2021/07/10 05:40:37;;;;;;;6.97;5.13;;;;;;;;;;5073002;28;20429;-67
2021/07/10 05:43:03;;;;;;;6.37;5.10;;;;;;;;;;5087773;28;20470;-67
2021/07/10 05:45:29;;;;;;;7.27;6.20;;;;;;;;;;5093201;28;20404;-67
2021/07/10 05:47:55;;;;;;;6.20;5.20;;;;;;;;;;5095330;28;20428;-67
2021/07/10 05:50:21;;;;;;;7.33;5.57;;;;;;;;;;5093038;28;20511;-68
2021/07/10 05:52:47;;;;;;;6.17;4.70;;;;;;;;;;5086467;28;20436;-67
2021/07/10 05:55:13;;;;;;;8.13;5.83;;;;;;;;;;5092773;28;20911;-67
2021/07/10 05:57:39;;;;;;;6.10;5.50;;;;;;;;;;5082282;28;20761;-68
2021/07/10 06:00:07;;;;;;;6.73;6.03;;;;;;;;;;5072589;28;20509;-67
2021/07/10 06:02:33;;;;;;;7.27;5.63;;;;;;;;;;5072820;28;20436;-67
2021/07/10 06:04:59;;;;;;;7.27;6.40;;;;;;;;;;5073445;28;20397;-67
2021/07/10 06:07:25;;;;;;;6.63;6.03;;;;;;;;;;5080111;28;20920;-68
2021/07/10 06:09:51;;;;;;;7.27;6.50;;;;;;;;;;5092714;28;20444;-68
2021/07/10 06:12:17;;;;;;;6.63;5.93;;;;;;;;;;5091589;28;20423;-67
2021/07/10 06:14:43;;;;;;;7.53;6.30;;;;;;;;;;5093084;28;20403;-67
2021/07/10 06:17:09;;;;;;;7.83;5.80;;;;;;;;;;5091043;28;20862;-67
2021/07/10 06:19:35;;;;;;;7.40;6.70;;;;;;;;;;5092755;28;20481;-67
2021/07/10 06:22:01;;;;;;;11.00;6.90;;;;;;;;;;5081028;28;20504;-67
2021/07/10 06:24:27;;;;;;;10.97;6.30;;;;;;;;;;5072769;28;20458;-67
2021/07/10 06:26:54;;;;;;;6.50;5.80;;;;;;;;;;5092281;28;20853;-67
2021/07/10 06:29:20;;;;;;;6.67;5.93;;;;;;;;;;5072231;28;20453;-67
2021/07/10 06:31:46;;;;;;;11.00;5.80;;;;;;;;;;5073666;28;20450;-67
2021/07/10 06:34:12;;;;;;;6.60;5.10;;;;;;;;;;5095949;28;20857;-67
2021/07/10 06:36:39;;;;;;;7.00;5.20;;;;;;;;;;5095442;28;20445;-68
2021/07/10 06:39:05;;;;;;;6.67;4.97;;;;;;;;;;5076078;28;20429;-67
2021/07/10 06:41:31;;;;;;;5.40;4.80;;;;;;;;;;5076184;28;20397;-67
2021/07/10 06:43:57;;;;;;;6.03;5.30;;;;;;;;;;5095093;28;20431;-67
2021/07/10 06:46:24;;;;;;;6.00;5.20;;;;;;;;;;5096726;28;20477;-67
2021/07/10 06:48:50;;;;;;;8.17;4.33;;;;;;;;;;5094949;28;20459;-67
2021/07/10 06:51:19;;;;;;;5.10;4.40;;;;;;;;;;5094838;28;20440;-67
2021/07/10 06:53:45;;;;;;;7.17;5.67;;;;;;;;;;5078630;28;20460;-67
2021/07/10 06:56:11;;;;;;;5.47;4.53;;;;;;;;;;5075801;28;20405;-67
2021/07/10 06:58:37;;;;;;;7.77;4.83;;;;;;;;;;5075434;28;20450;-67
2021/07/10 07:01:03;;;;;;;9.00;6.10;;;;;;;;;;5075736;28;20491;-67
2021/07/10 07:03:31;;;;;;;7.20;5.80;;;;;;;;;;5089104;28;20427;-67
2021/07/10 07:05:57;;;;;;;7.37;5.37;;;;;;;;;;5096076;28;20488;-67
2021/07/10 07:08:23;;;;;;;7.40;5.80;;;;;;;;;;5094567;28;20483;-67
2021/07/10 07:10:49;;;;;;;6.83;5.47;;;;;;;;;;5095637;28;20402;-67
2021/07/10 07:13:16;;;;;;;7.67;5.10;;;;;;;;;;5094650;28;20507;-68
2021/07/10 07:15:42;;;;;;;5.73;5.03;;;;;;;;;;5095587;28;20935;-67
2021/07/10 07:18:08;;;;;;;7.60;4.90;;;;;;;;;;5094497;28;20424;-67
2021/07/10 07:20:34;;;;;;;8.07;6.20;;;;;;;;;;5095511;28;20479;-67
2021/07/10 07:23:01;;;;;;;7.37;5.20;;;;;;;;;;5094588;28;20780;-67
2021/07/10 07:25:27;;;;;;;6.50;5.63;;;;;;;;;;5095274;28;20403;-67
2021/07/10 07:27:53;;;;;;;6.97;5.27;;;;;;;;;;5094209;28;20428;-67
2021/07/10 07:30:19;;;;;;;6.70;5.80;;;;;;;;;;5095364;28;20452;-67
2021/07/10 07:32:45;;;;;;;6.30;5.40;;;;;;;;;;5091431;28;20428;-68
2021/07/10 07:35:13;;;;;;;6.93;5.57;;;;;;;;;;5115752;28;20431;-67
2021/07/10 07:37:39;;;;;;;6.57;4.70;;;;;;;;;;5108003;28;20441;-67
2021/07/10 07:40:06;;;;;;;6.37;4.70;;;;;;;;;;5095191;28;20481;-67
2021/07/10 07:42:32;;;;;;;5.47;4.90;;;;;;;;;;5093897;28;20515;-67
2021/07/10 07:44:58;;;;;;;5.80;5.17;;;;;;;;;;5093784;28;20411;-67
2021/07/10 07:47:25;;;;;;;6.23;5.07;;;;;;;;;;5094991;28;20486;-67
2021/07/10 07:49:51;;;;;;;9.67;5.73;;;;;;;;;;5094649;28;20444;-67
2021/07/10 07:52:17;;;;;;;9.83;5.80;;;;;;;;;;5091875;28;20407;-67
2021/07/10 07:54:43;;;;;;;8.03;6.10;;;;;;;;;;5074380;28;20503;-67
2021/07/10 07:57:09;;;;;;;7.67;5.20;;;;;;;;;;5074396;28;20409;-68
2021/07/10 07:59:35;;;;;;;8.50;5.30;;;;;;;;;;5074439;28;20512;-67
2021/07/10 08:02:01;;;;;;;7.40;4.77;;;;;;;;;;5074297;28;20405;-68
2021/07/10 08:04:28;;;;;;;5.93;4.70;;;;;;;;;;5094675;28;20431;-67
2021/07/10 08:06:54;;;;;;;7.23;5.37;;;;;;;;;;5093699;28;20412;-67
2021/07/10 08:09:20;;;;;;;5.17;4.60;;;;;;;;;;5093248;28;20455;-67
2021/07/10 08:11:46;;;;;;;5.77;4.73;;;;;;;;;;5094645;28;20400;-67
2021/07/10 08:14:12;;;;;;;6.20;4.17;;;;;;;;;;5076454;28;20421;-67
2021/07/10 08:16:39;;;;;;;5.27;4.77;;;;;;;;;;5074252;28;20411;-67
2021/07/10 08:19:05;;;;;;;7.27;5.10;;;;;;;;;;5089536;28;20466;-67
2021/07/10 08:21:33;;;;;;;5.33;4.23;;;;;;;;;;5094166;28;20400;-67
2021/07/10 08:23:59;;;;;;;5.47;4.30;;;;;;;;;;5078951;28;20756;-67
2021/07/10 08:26:25;;;;;;;5.73;4.40;;;;;;;;;;5073973;28;20416;-67
2021/07/10 08:28:51;;;;;;;5.43;4.20;;;;;;;;;;5073678;28;20865;-68
2021/07/10 08:31:18;;;;;;;5.50;4.30;;;;;;;;;;5073651;28;20466;-67
2021/07/10 08:33:44;;;;;;;6.13;4.50;;;;;;;;;;5076498;28;20482;-67
2021/07/10 08:36:10;;;;;;;6.10;5.27;;;;;;;;;;5073857;28;20420;-67
2021/07/10 08:38:37;;;;;;;5.23;4.57;;;;;;;;;;5084333;28;20440;-67
2021/07/10 08:41:06;;;;;;;6.60;3.83;;;;;;;;;;5092629;28;20459;-68
2021/07/10 08:43:32;;;;;;;5.17;4.10;;;;;;;;;;5082167;28;20425;-68
2021/07/10 08:46:01;;;;;;;4.50;4.03;;;;;;;;;;5073448;28;20500;-68
2021/07/10 08:48:27;;;;;;;4.37;3.93;;;;;;;;;;5082408;28;20486;-67
2021/07/10 08:50:53;;;;;;;5.70;4.40;;;;;;;;;;5093538;28;20847;-67
2021/07/10 08:53:20;;;;;;;4.50;3.90;;;;;;;;;;5084867;28;20428;-68
2021/07/10 08:55:50;;;;;;;7.03;5.50;;;;;;;;;;5072986;28;20409;-67
2021/07/10 08:58:16;;;;;;;5.40;4.20;;;;;;;;;;5082066;28;20477;-68
2021/07/10 09:00:42;;;;;;;4.30;3.90;;;;;;;;;;5113872;28;20402;-67
2021/07/10 09:03:09;;;;;;;4.27;3.87;;;;;;;;;;5106142;28;20469;-67
2021/07/10 09:05:36;;;;;;;4.47;3.83;;;;;;;;;;5093747;28;20526;-67
2021/07/10 09:08:16;;;;;;;12.13;4.83;;;;;;;;;;5087735;28;20417;-67
2021/07/10 09:10:43;;;;;;;5.13;4.30;;;;;;;;;;5073313;28;20396;-67
2021/07/10 09:13:10;;;;;;;6.63;5.13;;;;;;;;;;5073107;28;20417;-67
2021/07/10 09:15:36;;;;;;;9.33;4.80;;;;;;;;;;5072985;28;20389;-68
2021/07/10 09:18:02;;;;;;;5.23;4.07;;;;;;;;;;5077119;28;20415;-67
2021/07/10 09:20:30;;;;;;;4.70;4.30;;;;;;;;;;5093048;28;20384;-68
2021/07/10 09:22:56;;;;;;;6.00;3.70;;;;;;;;;;5092404;28;20412;-68
2021/07/10 09:25:30;;;;;;;3.87;3.43;;;;;;;;;;5092927;28;20499;-68
2021/07/10 09:27:57;;;;;;;4.00;3.30;;;;;;;;;;5091777;28;20461;-68
2021/07/10 09:30:33;;;;;;;4.27;3.90;;;;;;;;;;5093117;28;20492;-68
2021/07/10 09:33:18;;;;;;;6.63;4.10;;;;;;;;;;5090548;28;20455;-68
2021/07/10 09:35:54;;;;;;;5.70;4.70;;;;;;;;;;5093151;28;20475;-68
2021/07/10 09:38:25;;;;;;;4.90;4.40;;;;;;;;;;5091919;28;20454;-68
2021/07/10 09:41:05;;;;;;;5.60;4.47;;;;;;;;;;5092980;28;20869;-68
2021/07/10 09:43:32;;;;;;;5.43;4.20;;;;;;;;;;5091884;28;20423;-67
2021/07/10 09:46:02;;;;;;;5.13;4.63;;;;;;;;;;5092796;28;20388;-68
2021/07/10 09:48:32;;;;;;;6.03;4.67;;;;;;;;;;5084298;28;20454;-68
2021/07/10 09:51:17;;;;;;;4.97;4.30;;;;;;;;;;5092795;28;20420;-67
2021/07/10 09:53:56;;;;;;;4.37;3.97;;;;;;;;;;5092122;28;20947;-68
2021/07/10 09:56:22;;;;;;;4.90;4.00;;;;;;;;;;5092794;28;20368;-68
2021/07/10 09:58:48;;;;;;;5.20;4.30;;;;;;;;;;5091796;28;20450;-67
2021/07/10 10:01:34;;;;;;;5.67;3.97;;;;;;;;;;5092668;28;20399;-67
2021/07/10 10:04:01;;;;;;;5.17;4.00;;;;;;;;;;5081173;28;20449;-66
2021/07/10 10:06:29;;;;;;;5.30;4.10;;;;;;;;;;5072340;28;20446;-68
2021/07/10 10:08:55;;;;;;;7.70;4.70;;;;;;;;;;5084642;28;20451;-67
2021/07/10 10:11:21;;;;;;;5.30;3.90;;;;;;;;;;5096749;28;20400;-68
2021/07/10 10:13:47;;;;;;;5.97;5.17;;;;;;;;;;5087003;28;20424;-68
2021/07/10 10:16:15;;;;;;;5.87;4.97;;;;;;;;;;5076191;28;20400;-67
2021/07/10 10:18:42;;;;;;;4.57;4.03;;;;;;;;;;5083507;28;20519;-68
2021/07/10 10:21:08;;;;;;;11.23;6.00;;;;;;;;;;5095792;28;20435;-68
2021/07/10 10:23:34;;;;;;;6.90;5.00;;;;;;;;;;5095355;28;20430;-68
2021/07/10 10:26:01;;;;;;;5.13;4.63;;;;;;;;;;5096366;28;20396;-68
2021/07/10 10:28:28;;;;;;;12.80;5.57;;;;;;;;;;5095211;28;20465;-68
2021/07/10 10:30:55;;;;;;;5.57;4.53;;;;;;;;;;5096182;28;20407;-68
2021/07/10 10:33:22;;;;;;;6.43;5.67;;;;;;;;;;5094229;28;20464;-68
2021/07/10 10:35:53;;;;;;;5.87;4.70;;;;;;;;;;5116190;28;20391;-68
2021/07/10 10:38:20;;;;;;;4.80;3.47;;;;;;;;;;5111179;28;20439;-68
2021/07/10 10:40:48;;;;;;;4.80;4.27;;;;;;;;;;5096170;28;20392;-68
2021/07/10 10:43:16;;;;;;;5.50;4.30;;;;;;;;;;5094849;28;20416;-67
2021/07/10 10:45:42;;;;;;;5.70;5.03;;;;;;;;;;5092528;28;20412;-68
2021/07/10 10:48:08;;;;;;;7.90;4.80;;;;;;;;;;5076679;28;20754;-67
2021/07/10 10:50:35;;;;;;;7.50;5.37;;;;;;;;;;5095645;28;20442;-68
2021/07/10 10:53:02;;;;;;;6.03;5.13;;;;;;;;;;5094443;28;20845;-67
2021/07/10 10:55:31;;;;;;;5.80;5.20;;;;;;;;;;5078469;28;20455;-67
2021/07/10 10:57:57;;;;;;;5.90;5.30;;;;;;;;;;5074962;28;20420;-67
2021/07/10 11:00:23;;;;;;;7.00;6.30;;;;;;;;;;5095220;28;20834;-67
2021/07/10 11:02:49;;;;;;;9.83;6.60;;;;;;;;;;5096051;28;20464;-67
2021/07/10 11:05:35;;;;;;;5.63;5.13;;;;;;;;;;5094963;28;20426;-67
2021/07/10 11:08:20;;;;;;;7.10;5.67;;;;;;;;;;5094496;28;20423;-67
2021/07/10 11:10:52;;;;;;;7.30;6.10;;;;;;;;;;5075595;28;20944;-67
2021/07/10 11:13:30;;;;;;;6.50;5.57;;;;;;;;;;5077012;28;20404;-66
2021/07/10 11:16:14;;;;;;;5.60;5.07;;;;;;;;;;5095239;28;20399;-66
2021/07/10 11:18:56;;;;;;;6.57;5.97;;;;;;;;;;5089647;28;20452;-66
2021/07/10 11:21:34;;;;;;;6.33;5.20;;;;;;;;;;5075070;28;20396;-67
2021/07/10 11:26:57;;;;;;;5.70;4.60;;;;;;;;;;5075243;28;20397;-67
2021/07/10 11:29:26;;;;;;;6.87;4.30;;;;;;;;;;5084518;28;20494;-67
2021/07/10 11:31:52;;;;;;;5.93;4.73;;;;;;;;;;5095091;28;20493;-67
2021/07/10 11:34:19;;;;;;;7.60;4.50;;;;;;;;;;5093777;28;20420;-67
2021/07/10 11:36:45;;;;;;;5.37;4.77;;;;;;;;;;5094690;28;20399;-67
2021/07/10 11:39:27;;;;;;;5.10;4.50;;;;;;;;;;5092751;28;20454;-67
2021/07/10 11:41:54;;;;;;;5.53;4.60;;;;;;;;;;5094661;28;20411;-66
2021/07/10 11:44:24;;;;;;;6.40;5.20;;;;;;;;;;5089293;28;20420;-67
2021/07/10 11:46:56;;;;;;;7.27;4.07;;;;;;;;;;5074880;28;20821;-67
2021/07/10 11:49:40;;;;;;;5.37;4.10;;;;;;;;;;5079391;28;20795;-67
2021/07/10 11:52:06;;;;;;;6.80;4.00;;;;;;;;;;5094752;28;20814;-67
2021/07/10 11:54:33;;;;;;;4.37;3.97;;;;;;;;;;5093867;28;20424;-67
2021/07/10 11:56:59;;;;;;;5.10;4.60;;;;;;;;;;5094713;28;20400;-67
2021/07/10 11:59:25;;;;;;;6.00;4.13;;;;;;;;;;5093729;28;20451;-67
2021/07/10 12:01:51;;;;;;;4.37;3.73;;;;;;;;;;5094733;28;20415;-67
2021/07/10 12:04:17;;;;;;;4.50;4.10;;;;;;;;;;5094378;28;20518;-68
2021/07/10 12:06:43;;;;;;;6.67;4.40;;;;;;;;;;5094657;28;20491;-67
2021/07/10 12:09:09;;;;;;;4.80;3.97;;;;;;;;;;5093546;28;20542;-67
2021/07/10 12:11:35;;;;;;;4.50;4.10;;;;;;;;;;5094477;28;20399;-67
2021/07/10 12:14:05;;;;;;;5.87;4.03;;;;;;;;;;5092837;28;20407;-67
2021/07/10 12:16:31;;;;;;;5.10;4.10;;;;;;;;;;5074211;28;20393;-67
2021/07/10 12:18:58;;;;;;;5.10;4.60;;;;;;;;;;5073987;28;20421;-67
2021/07/10 12:21:24;;;;;;;5.60;4.23;;;;;;;;;;5092924;28;20426;-68
2021/07/10 12:23:51;;;;;;;5.60;4.50;;;;;;;;;;5095884;28;20431;-67
2021/07/10 12:26:18;;;;;;;4.93;4.30;;;;;;;;;;5093232;28;20436;-67
2021/07/10 12:28:45;;;;;;;5.60;3.50;;;;;;;;;;5094206;28;20451;-67
2021/07/10 12:31:16;;;;;;;6.50;3.70;;;;;;;;;;5092380;28;20416;-67
2021/07/10 12:33:47;;;;;;;6.40;3.70;;;;;;;;;;5094090;28;20408;-69
2021/07/10 12:36:18;;;;;;;3.53;3.23;;;;;;;;;;5091768;28;20511;-67
2021/07/10 12:38:52;;;;;;;4.13;3.70;;;;;;;;;;5093767;28;20431;-67
2021/07/10 12:41:24;;;;;;;11.03;5.70;;;;;;;;;;5092721;28;20837;-67
2021/07/10 12:43:50;;;;;;;4.77;3.90;;;;;;;;;;5102641;28;20464;-67
2021/07/10 12:46:16;;;;;;;4.33;3.70;;;;;;;;;;5094148;28;20423;-67
2021/07/10 12:48:43;;;;;;;4.10;3.70;;;;;;;;;;5093762;28;20545;-67
2021/07/10 12:51:09;;;;;;;6.20;3.70;;;;;;;;;;5075614;28;20478;-67
2021/07/10 12:53:37;;;;;;;4.23;3.17;;;;;;;;;;5073261;28;20495;-67
2021/07/10 12:56:42;;;;;;;4.00;3.60;;;;;;;;;;5089411;28;20419;-67
2021/07/10 12:59:19;;;;;;;6.60;4.40;;;;;;;;;;5092656;28;20416;-67
2021/07/10 13:01:51;;;;;;;5.33;3.70;;;;;;;;;;5071995;28;20400;-67
2021/07/10 13:04:17;;;;;;;6.10;3.80;;;;;;;;;;5073867;28;20381;-67
2021/07/10 13:06:44;;;;;;;3.93;3.43;;;;;;;;;;5093723;28;20768;-67
2021/07/10 13:09:10;;;;;;;4.87;3.47;;;;;;;;;;5092711;28;20439;-67
2021/07/10 13:11:53;;;;;;;4.93;3.57;;;;;;;;;;5073371;28;20462;-67
2021/07/10 13:14:22;;;;;;;3.77;3.10;;;;;;;;;;5073327;28;20452;-67
2021/07/10 13:16:48;;;;;;;4.60;4.10;;;;;;;;;;5072980;28;20400;-67
2021/07/10 13:19:14;;;;;;;4.30;3.70;;;;;;;;;;5105326;28;20442;-67
2021/07/10 13:21:41;;;;;;;4.27;3.30;;;;;;;;;;5093012;28;20411;-66
2021/07/10 13:24:08;;;;;;;5.03;3.87;;;;;;;;;;5093500;28;20506;-66
2021/07/10 13:26:38;;;;;;;3.50;3.20;;;;;;;;;;5092189;28;20441;-66
2021/07/10 13:29:16;;;;;;;5.73;3.87;;;;;;;;;;5092883;28;20477;-67
2021/07/10 13:31:43;;;;;;;3.93;3.53;;;;;;;;;;5073289;28;20931;-68
2021/07/10 13:34:21;;;;;;;4.93;3.47;;;;;;;;;;5072928;28;20392;-68
2021/07/10 13:36:48;;;;;;;7.73;4.37;;;;;;;;;;5093088;28;20945;-68
2021/07/10 13:39:14;;;;;;;3.40;3.10;;;;;;;;;;5093313;28;20485;-68
2021/07/10 13:41:41;;;;;;;4.77;3.17;;;;;;;;;;5093424;28;20442;-68
2021/07/10 13:44:15;;;;;;;3.53;3.13;;;;;;;;;;5097817;28;20461;-68
2021/07/10 13:46:54;;;;;;;4.07;3.67;;;;;;;;;;5096536;28;20977;-68
2021/07/10 13:49:20;;;;;;;4.70;3.20;;;;;;;;;;5097073;28;20545;-72
2021/07/10 13:51:47;;;;;;;3.90;3.50;;;;;;;;;;5094906;28;20478;-68
2021/07/10 13:54:30;;;;;;;3.97;3.43;;;;;;;;;;5097176;28;20888;-68
2021/07/10 13:57:17;;;;;;;3.97;3.53;;;;;;;;;;5077100;28;20776;-68
2021/07/10 14:00:01;;;;;;;3.57;3.27;;;;;;;;;;5077070;28;20436;-68
2021/07/10 14:02:29;;;;;;;4.70;3.53;;;;;;;;;;5097234;28;20810;-68
2021/07/10 14:05:04;;;;;;;4.70;3.33;;;;;;;;;;5092635;28;20439;-68
2021/07/10 14:07:30;;;;;;;3.70;3.00;;;;;;;;;;5076524;28;20400;-68
2021/07/10 14:09:56;;;;;;;8.50;4.17;;;;;;;;;;5076123;28;20801;-68
2021/07/10 14:12:22;;;;;;;5.40;3.30;;;;;;;;;;5076323;28;20486;-67
2021/07/10 14:14:48;;;;;;;5.60;3.83;;;;;;;;;;5076167;28;20428;-68
2021/07/10 14:17:14;;;;;;;4.90;3.67;;;;;;;;;;5075127;28;20418;-68
2021/07/10 14:19:40;;;;;;;5.07;3.83;;;;;;;;;;5076496;28;20505;-68
2021/07/10 14:22:06;;;;;;;5.20;3.13;;;;;;;;;;5096601;28;20440;-68
2021/07/10 14:24:32;;;;;;;3.97;3.47;;;;;;;;;;5095151;28;20504;-68
2021/07/10 14:26:59;;;;;;;4.00;3.20;;;;;;;;;;5076424;28;20416;-68
2021/07/10 14:29:24;;;;;;;4.33;3.33;;;;;;;;;;5076408;28;20960;-68
2021/07/10 14:31:50;;;;;;;5.33;3.63;;;;;;;;;;5076150;28;20512;-68
2021/07/10 14:34:16;;;;;;;3.83;2.70;;;;;;;;;;5076057;28;20416;-68
2021/07/10 14:36:43;;;;;;;3.60;3.17;;;;;;;;;;5076091;28;20436;-68
2021/07/10 14:39:09;;;;;;;3.30;3.00;;;;;;;;;;5075969;28;20793;-68
2021/07/10 14:41:35;;;;;;;4.83;2.80;;;;;;;;;;5089241;28;20907;-68
2021/07/10 14:44:01;;;;;;;3.13;2.77;;;;;;;;;;5096186;28;20399;-68
2021/07/10 14:46:27;;;;;;;4.30;2.93;;;;;;;;;;5080616;28;20421;-67